Skip Navigation Links
NOAA logo - Click to go to the NOAA homepage
NOAA's National Weather Service
Alaska Aviation Weather Unit
  NWS logo - Click to go to the NWS homepage
Left Navbar Graphic     21 AKDT = 05 GMT

   
NOAA is celebrating 200 years of science, service, and stewardship. Visit the NOAA 200th celebration Web site to learn more.
USA.gov is the U.S. Government's official Web portal to all Federal, state and local government Web resources and services.
Facebook
NWS on Facebook

AAWU Home :: Display TAF Add Bookmark
PASV 262331Z AUTO 18003KT 10SM -SHRA BKN030 06/02 A2951=

PASV 262351Z AUTO 07007G12KT 040V110 10SM BKN030 BKN042 07/02
A2951=

METAR PASV 262355Z AUTO 07011G15KT 10SM FEW022 BKN040 06/02 A2951=

PASV 270011Z AUTO 07013KT 10SM BKN024 BKN070 05/02 A2951=

PASV 270031Z AUTO 06007KT 10SM -SHRA OVC031 05/02 A2951=

PASV 270051Z AUTO 18007KT 9SM -SHRA OVC023 04/02 A2951=

METAR PASV 270055Z AUTO 20005KT 8SM -SHRA OVC022 04/02 A2951=

PASV 270131Z AUTO 31004KT 10SM -SHRA OVC033 05/02 A2951=

PASV 270151Z AUTO 24005KT 10SM OVC036 04/02 A2951=

METAR PASV 270155Z AUTO 24005KT 10SM BKN036 OVC100 04/02 A2951=

METAR PASV 270255Z AUTO 21003KT 10SM BKN080 BKN120 06/02 A2951=

METAR PASV 270355Z AUTO 22004KT 10SM FEW045 SCT065 BKN120 07/01
     A2951=

PASV 270431Z AUTO 21004KT 10SM BKN021 BKN044 BKN065 06/02 A2952=


NOAA's National Weather Service
Alaska Aviation Weather Unit
6930 Sand Lake Road
Anchorage, AK 99502-1845
Disclaimer
Credits
Glossary
Privacy Policy
About Us
Career Opportunities
Contact AAWU Internet Services Site last modified: April, 17th 2012